Time;durP1;ratioP1;P1;durP2;ratioP2;P2;SDS_P1;SDS_P2;PMS_P1;PMS_P2;Temp;Humidity;BMP_temperature;BMP_pressure;BME280_temperature;BME280_humidity;BME280_pressure;Samples;Min_cycle;Max_cycle;Signal;HPM_P1;HPM_P2
2021/05/30 00:01:56;;;;;;;10.13;8.88;;;;;;;9.79;100.00;98437.34;5003520;28;20022;-83
2021/05/30 00:04:22;;;;;;;10.63;8.77;;;;;;;9.74;100.00;98422.88;5015373;28;20018;-84
2021/05/30 00:06:48;;;;;;;10.45;9.35;;;;;;;9.81;100.00;98428.84;5015392;28;20502;-86
2021/05/30 00:09:14;;;;;;;13.13;9.85;;;;;;;9.73;100.00;98426.69;5015869;28;20040;-84
2021/05/30 00:11:41;;;;;;;13.70;10.52;;;;;;;9.81;100.00;98418.75;4997275;28;20022;-84
2021/05/30 00:14:06;;;;;;;17.42;11.57;;;;;;;9.72;100.00;98423.13;5014716;28;20030;-84
2021/05/30 00:16:33;;;;;;;22.23;13.02;;;;;;;9.61;100.00;98411.44;5014980;28;20112;-82
2021/05/30 00:19:00;;;;;;;20.23;13.88;;;;;;;9.57;100.00;98426.75;5014796;28;20026;-84
2021/05/30 00:21:26;;;;;;;22.70;13.90;;;;;;;9.54;100.00;98429.22;4997235;28;20041;-85
2021/05/30 00:23:52;;;;;;;14.63;11.95;;;;;;;9.47;100.00;98415.00;5014113;28;20026;-87
2021/05/30 00:26:17;;;;;;;20.42;13.85;;;;;;;9.63;100.00;98420.16;5014812;28;20036;-87
2021/05/30 00:28:42;;;;;;;15.40;11.77;;;;;;;9.48;100.00;98420.22;5015167;28;20414;-87
2021/05/30 00:31:08;;;;;;;19.33;11.52;;;;;;;9.42;100.00;98413.13;4997553;28;20057;-89
2021/05/30 00:33:33;;;;;;;14.50;10.40;;;;;;;9.29;100.00;98421.06;4996953;28;20028;-85
2021/05/30 00:35:59;;;;;;;26.90;11.20;;;;;;;9.30;100.00;98415.34;4997196;28;20021;-83
2021/05/30 00:38:24;;;;;;;13.77;10.82;;;;;;;9.35;100.00;98428.16;4998910;28;20084;-85
2021/05/30 00:40:52;;;;;;;10.73;9.63;;;;;;;9.34;100.00;98415.59;5010130;28;20062;-87
2021/05/30 00:43:18;;;;;;;11.43;9.77;;;;;;;9.38;100.00;98409.31;4996855;28;20025;-86
2021/05/30 00:45:45;;;;;;;14.15;9.48;;;;;;;9.30;100.00;98418.06;4980262;28;20062;-87
2021/05/30 00:48:11;;;;;;;10.80;9.70;;;;;;;9.31;100.00;98405.22;4979568;28;20125;-86
2021/05/30 00:50:36;;;;;;;12.80;9.23;;;;;;;9.33;100.00;98425.72;4996497;28;20081;-85
2021/05/30 00:53:02;;;;;;;17.13;11.00;;;;;;;9.31;100.00;98418.88;4996615;28;20027;-87
2021/05/30 00:55:28;;;;;;;17.60;10.98;;;;;;;9.21;100.00;98416.97;4997127;28;20031;-85
2021/05/30 00:57:53;;;;;;;13.23;10.77;;;;;;;9.25;100.00;98428.97;4978735;28;20037;-86
2021/05/30 01:00:19;;;;;;;16.73;11.20;;;;;;;9.34;100.00;98424.59;4978430;28;20045;-85
2021/05/30 01:02:44;;;;;;;13.70;10.77;;;;;;;9.44;100.00;98421.84;4978333;28;20502;-86
2021/05/30 01:05:11;;;;;;;13.82;10.93;;;;;;;9.51;100.00;98427.84;4995800;28;20399;-84
2021/05/30 01:07:42;;;;;;;14.13;9.80;;;;;;;9.35;100.00;98412.59;4995596;28;20030;-89
2021/05/30 01:10:32;;;;;;;14.85;10.77;;;;;;;9.40;100.00;98423.50;4978571;28;20033;-86
2021/05/30 01:12:59;;;;;;;52.50;11.18;;;;;;;9.25;100.00;98409.06;4978399;28;20019;-88
2021/05/30 01:15:30;;;;;;;31.08;10.75;;;;;;;9.27;100.00;98413.13;4995403;28;20031;-87
2021/05/30 01:17:56;;;;;;;27.05;13.23;;;;;;;9.31;100.00;98421.59;4995482;28;20050;-86
2021/05/30 01:20:24;;;;;;;16.45;11.45;;;;;;;9.34;100.00;98419.13;4978106;28;20026;-87
2021/05/30 01:22:51;;;;;;;19.00;13.45;;;;;;;9.39;100.00;98418.31;4995197;28;20034;-85
2021/05/30 01:25:22;;;;;;;22.92;13.57;;;;;;;9.34;100.00;98413.69;4995054;28;20034;-87
2021/05/30 01:27:48;;;;;;;19.70;12.50;;;;;;;9.45;100.00;98422.69;4994675;28;20038;-87
2021/05/30 01:30:16;;;;;;;29.35;12.18;;;;;;;9.33;100.00;98414.78;4979467;28;20023;-86
2021/05/30 01:32:43;;;;;;;21.60;13.63;;;;;;;9.35;100.00;98417.22;4981892;28;20026;-86
2021/05/30 01:35:09;;;;;;;26.23;13.02;;;;;;;9.44;100.00;98418.31;4981826;28;20033;-88
2021/05/30 01:37:35;;;;;;;21.25;13.73;;;;;;;9.54;100.00;98423.75;4982724;28;20026;-88
2021/05/30 01:40:00;;;;;;;23.20;14.18;;;;;;;9.42;100.00;98410.41;4996672;28;20034;-86
2021/05/30 01:42:26;;;;;;;20.20;14.30;;;;;;;9.54;100.00;98419.09;4994856;28;20023;-87
2021/05/30 01:44:51;;;;;;;18.85;12.85;;;;;;;9.58;100.00;98420.19;4994104;28;20050;-87
2021/05/30 01:47:17;;;;;;;30.65;14.35;;;;;;;9.56;100.00;98419.63;4994353;28;20022;-86
2021/05/30 01:49:42;;;;;;;18.20;12.93;;;;;;;9.56;100.00;98414.19;4976908;28;20041;-85
2021/05/30 01:52:09;;;;;;;16.23;11.25;;;;;;;9.55;100.00;98403.53;4977378;28;20472;-84
2021/05/30 01:54:36;;;;;;;14.98;11.40;;;;;;;9.55;100.00;98411.75;4994741;28;20026;-87
2021/05/30 01:57:08;;;;;;;27.42;11.23;;;;;;;9.55;100.00;98411.75;4994621;28;20537;-87
2021/05/30 01:59:33;;;;;;;16.35;11.23;;;;;;;9.44;100.00;98402.75;4994781;28;20476;-86
2021/05/30 02:02:00;;;;;;;21.88;11.60;;;;;;;9.44;100.00;98410.94;4977776;28;20034;-86
2021/05/30 02:04:31;;;;;;;21.52;11.65;;;;;;;9.39;100.00;98389.13;4978371;28;20031;-86
2021/05/30 02:06:59;;;;;;;22.60;12.23;;;;;;;9.46;100.00;98403.28;4995264;28;20026;-86
2021/05/30 02:09:26;;;;;;;21.25;13.60;;;;;;;9.40;100.00;98407.09;4978201;28;20023;-88
2021/05/30 02:11:51;;;;;;;34.05;13.90;;;;;;;9.39;100.00;98408.22;4977807;28;20033;-85
2021/05/30 02:14:18;;;;;;;31.88;13.23;;;;;;;9.26;100.00;98397.88;4995617;28;20031;-87
2021/05/30 02:16:44;;;;;;;25.70;13.45;;;;;;;9.41;100.00;98406.03;4982677;28;20038;-85
2021/05/30 02:19:10;;;;;;;21.30;12.20;;;;;;;9.56;100.00;98407.88;4980468;28;20404;-85
2021/05/30 02:21:40;;;;;;;24.83;13.85;;;;;;;9.59;100.00;98410.06;4993101;28;20034;-87
2021/05/30 02:24:06;;;;;;;23.45;14.07;;;;;;;9.61;100.00;98411.44;4976324;28;20046;-86
2021/05/30 02:26:31;;;;;;;26.02;12.07;;;;;;;9.41;100.00;98395.09;4993651;28;20508;-85
2021/05/30 02:28:57;;;;;;;26.58;12.55;;;;;;;9.32;100.00;98402.22;4993346;28;20032;-86
2021/05/30 02:31:22;;;;;;;25.25;11.65;;;;;;;9.36;100.00;98408.78;4976733;28;20113;-85
2021/05/30 02:33:47;;;;;;;29.50;11.45;;;;;;;9.38;100.00;98400.28;4980773;28;20031;-85
2021/05/30 02:36:13;;;;;;;13.55;10.30;;;;;;;9.23;100.00;98384.78;4999396;28;20395;-85
2021/05/30 02:38:38;;;;;;;15.27;9.93;;;;;;;9.44;100.00;98402.75;4994092;28;20038;-85
2021/05/30 02:41:04;;;;;;;15.07;10.18;;;;;;;9.44;100.00;98399.19;4976956;28;20027;-84
2021/05/30 02:43:29;;;;;;;13.02;9.05;;;;;;;9.39;100.00;98394.56;4976578;28;20024;-86
2021/05/30 02:45:54;;;;;;;12.05;9.95;;;;;;;9.54;100.00;98397.25;4993050;28;20415;-87
2021/05/30 02:48:20;;;;;;;12.52;9.25;;;;;;;9.47;100.00;98394.00;4977152;28;20027;-85
2021/05/30 02:50:57;;;;;;;16.33;10.60;;;;;;;9.23;100.00;98392.97;4977163;28;20165;-84
2021/05/30 02:53:23;;;;;;;14.48;10.20;;;;;;;9.19;100.00;98380.97;4994045;28;20041;-87
2021/05/30 02:55:48;;;;;;;10.82;8.65;;;;;;;9.34;100.00;98396.47;4994575;28;20026;-86
2021/05/30 02:58:14;;;;;;;14.48;9.73;;;;;;;9.33;100.00;98406.59;4997473;28;20029;-87
2021/05/30 03:00:39;;;;;;;25.02;10.77;;;;;;;9.03;100.00;98387.53;4980815;28;20364;-87
2021/05/30 03:03:04;;;;;;;15.52;10.70;;;;;;;9.14;100.00;98389.16;4997856;28;20105;-85
2021/05/30 03:05:30;;;;;;;16.50;10.07;;;;;;;8.92;100.00;98375.00;4980710;28;20037;-84
2021/05/30 03:07:55;;;;;;;13.20;10.00;;;;;;;8.94;100.00;98381.00;4981165;28;20468;-88
2021/05/30 03:10:21;;;;;;;16.75;11.45;;;;;;;8.89;100.00;98391.91;4999094;28;20425;-88
2021/05/30 03:12:46;;;;;;;17.77;10.93;;;;;;;8.89;100.00;98384.56;4980028;28;20056;-87
2021/05/30 03:15:12;;;;;;;19.60;12.27;;;;;;;9.03;100.00;98403.91;4998257;28;20452;-85
2021/05/30 03:17:37;;;;;;;15.75;12.20;;;;;;;9.05;100.00;98404.47;4997838;28;20042;-83
2021/05/30 03:20:04;;;;;;;18.63;12.05;;;;;;;9.08;100.00;98401.19;4997667;28;20057;-85
2021/05/30 03:22:29;;;;;;;18.17;11.00;;;;;;;9.21;100.00;98403.31;4980364;28;20360;-85
2021/05/30 03:24:55;;;;;;;18.55;12.25;;;;;;;9.17;100.00;98399.53;4997556;28;20054;-87
2021/05/30 03:27:20;;;;;;;34.03;10.45;;;;;;;9.12;100.00;98396.78;4997832;28;20471;-86
2021/05/30 03:29:46;;;;;;;15.75;10.48;;;;;;;9.09;100.00;98402.78;4997640;28;20017;-84
2021/05/30 03:32:11;;;;;;;17.25;10.15;;;;;;;9.07;100.00;98394.06;4997739;28;20117;-85
2021/05/30 03:34:37;;;;;;;15.70;10.23;;;;;;;9.06;100.00;98392.44;4997244;28;20038;-87
2021/05/30 03:37:02;;;;;;;17.05;9.80;;;;;;;9.14;100.00;98383.72;4997654;28;20011;-85
2021/05/30 03:39:31;;;;;;;17.20;9.82;;;;;;;9.11;100.00;98400.63;4996564;28;20033;-87
2021/05/30 03:41:58;;;;;;;15.43;10.50;;;;;;;9.09;100.00;98402.78;4980043;28;20019;-86
2021/05/30 03:44:24;;;;;;;13.35;9.63;;;;;;;9.11;100.00;98395.16;4979284;28;20018;-87
2021/05/30 03:46:49;;;;;;;17.67;11.63;;;;;;;9.04;100.00;98384.53;5012426;28;20026;-86
2021/05/30 03:49:15;;;;;;;13.82;9.77;;;;;;;9.13;100.00;98388.34;4997247;28;20030;-86
2021/05/30 03:51:40;;;;;;;23.85;10.23;;;;;;;9.09;100.00;98391.88;4979773;28;20039;-86
2021/05/30 03:54:06;;;;;;;14.88;11.10;;;;;;;9.00;100.00;98391.63;4996700;28;20506;-86
2021/05/30 03:56:31;;;;;;;12.75;11.38;;;;;;;8.96;100.00;98386.97;4996923;28;20035;-87
2021/05/30 03:58:57;;;;;;;16.98;11.50;;;;;;;8.83;100.00;98382.94;4981157;28;20027;-85
2021/05/30 04:01:22;;;;;;;18.00;11.30;;;;;;;8.98;100.00;98407.47;4980924;28;20491;-86
2021/05/30 04:03:48;;;;;;;17.75;11.55;;;;;;;9.23;100.00;98398.44;4997055;28;20057;-79
2021/05/30 04:06:13;;;;;;;16.35;11.73;;;;;;;9.10;100.00;98388.06;4995955;28;20037;-84
2021/05/30 04:08:39;;;;;;;16.30;10.90;;;;;;;9.16;100.00;98397.88;4977923;28;20033;-81
2021/05/30 04:11:04;;;;;;;13.63;9.98;;;;;;;9.15;100.00;98396.25;4987354;28;20023;-85
2021/05/30 04:13:30;;;;;;;17.33;11.23;;;;;;;9.11;100.00;98395.16;4978857;28;20027;-85
2021/05/30 04:15:55;;;;;;;16.15;11.18;;;;;;;9.26;100.00;98407.97;4997238;28;20050;-88
2021/05/30 04:18:24;;;;;;;13.88;10.80;;;;;;;9.34;100.00;98405.50;4995657;28;20066;-87
2021/05/30 04:20:50;;;;;;;11.38;9.00;;;;;;;9.33;100.00;98406.59;4996628;28;20500;-87
2021/05/30 04:23:16;;;;;;;12.98;9.13;;;;;;;9.19;100.00;98401.97;4997772;28;20042;-86
2021/05/30 04:25:42;;;;;;;11.93;9.25;;;;;;;9.01;100.00;98406.91;4998513;28;20030;-87
2021/05/30 04:28:07;;;;;;;12.70;9.38;;;;;;;8.90;100.00;98382.63;5000672;28;20471;-87
2021/05/30 04:30:33;;;;;;;14.90;10.07;;;;;;;9.16;100.00;98400.63;5008562;28;20022;-86
2021/05/30 04:32:58;;;;;;;14.73;9.35;;;;;;;9.25;100.00;98400.88;5003848;28;20531;-86
2021/05/30 04:35:24;;;;;;;11.85;8.40;;;;;;;9.11;100.00;98406.09;4980626;28;20027;-86
2021/05/30 04:37:49;;;;;;;11.15;9.02;;;;;;;9.07;100.00;98413.19;4979824;28;20395;-86
2021/05/30 04:40:16;;;;;;;12.45;8.85;;;;;;;9.00;100.00;98418.09;5016797;28;20068;-86
2021/05/30 04:42:41;;;;;;;9.98;8.50;;;;;;;9.05;100.00;98416.16;5016399;28;20022;-88
2021/05/30 04:45:07;;;;;;;10.65;8.30;;;;;;;9.08;100.00;98409.38;4998275;28;20068;-87
2021/05/30 04:47:33;;;;;;;10.82;8.77;;;;;;;9.11;100.00;98414.28;5015668;28;20037;-85
2021/05/30 04:49:59;;;;;;;10.80;8.27;;;;;;;9.23;100.00;98409.34;5015535;28;20041;-87
2021/05/30 04:52:24;;;;;;;12.50;8.75;;;;;;;9.36;100.00;98414.25;5016412;28;20026;-87
2021/05/30 04:54:50;;;;;;;12.13;8.45;;;;;;;9.42;100.00;98412.31;5015961;28;20033;-87
2021/05/30 04:57:15;;;;;;;11.00;8.13;;;;;;;9.55;100.00;98401.59;5015735;28;20101;-86
2021/05/30 04:59:40;;;;;;;12.43;8.60;;;;;;;9.60;100.00;98419.91;4998268;28;20018;-84
2021/05/30 05:02:06;;;;;;;9.52;6.90;;;;;;;9.79;100.00;98406.47;5014235;28;20434;-84
2021/05/30 05:04:31;;;;;;;9.27;6.65;;;;;;;9.80;100.00;98400.72;5015690;28;20037;-85
2021/05/30 05:06:57;;;;;;;9.38;6.95;;;;;;;9.85;100.00;98406.16;5015483;28;21563;-86
2021/05/30 05:09:22;;;;;;;9.55;6.15;;;;;;;9.80;100.00;98400.72;5015409;28;20475;-89
2021/05/30 05:11:47;;;;;;;9.23;6.97;;;;;;;9.95;100.00;98405.31;5015547;28;20022;-87
2021/05/30 05:14:13;;;;;;;8.80;6.60;;;;;;;10.08;100.00;98411.00;5015080;28;20033;-84
2021/05/30 05:16:38;;;;;;;5.95;4.93;;;;;;;10.00;100.00;98414.28;5014508;28;20033;-85
2021/05/30 05:19:04;;;;;;;7.18;5.88;;;;;;;10.14;100.00;98420.84;5013170;28;20076;-85
2021/05/30 05:21:30;;;;;;;7.78;5.00;;;;;;;9.89;100.00;98423.63;5015174;28;20104;-84
2021/05/30 05:23:55;;;;;;;8.25;5.13;;;;;;;9.62;100.00;98396.69;4996820;28;20053;-87
2021/05/30 05:26:21;;;;;;;7.20;5.28;;;;;;;9.73;100.00;98413.03;5013207;28;20072;-74
2021/05/30 05:28:48;;;;;;;6.00;5.18;;;;;;;9.54;100.00;98405.44;5011043;28;20372;-74
2021/05/30 05:31:13;;;;;;;7.88;5.88;;;;;;;9.56;100.00;98403.25;4994273;28;20029;-74
2021/05/30 05:33:40;;;;;;;8.30;6.15;;;;;;;9.74;100.00;98407.31;5011825;28;20034;-75
2021/05/30 05:36:06;;;;;;;8.15;6.30;;;;;;;9.83;100.00;98408.38;4994203;28;20112;-74
2021/05/30 05:38:31;;;;;;;8.20;6.60;;;;;;;10.02;100.00;98423.00;5005096;28;20504;-75
2021/05/30 05:40:57;;;;;;;6.90;6.20;;;;;;;10.08;100.00;98419.19;4992740;28;20030;-75
2021/05/30 05:43:23;;;;;;;7.20;5.90;;;;;;;10.28;100.00;98415.53;4974698;28;20040;-76
2021/05/30 05:45:48;;;;;;;8.05;6.60;;;;;;;10.17;100.00;98414.81;4991611;28;20058;-76
2021/05/30 05:48:16;;;;;;;7.07;5.65;;;;;;;10.34;100.00;98424.56;4992194;28;20393;-76
2021/05/30 05:50:43;;;;;;;5.72;4.85;;;;;;;10.30;99.61;98423.47;4992068;28;20027;-76
2021/05/30 05:53:09;;;;;;;7.07;5.68;;;;;;;10.22;100.00;98411.19;4992631;28;20065;-75
2021/05/30 05:55:35;;;;;;;7.88;6.75;;;;;;;10.40;100.00;98426.16;4992032;28;20070;-76
2021/05/30 05:58:01;;;;;;;8.00;5.95;;;;;;;10.48;99.72;98426.38;4974787;28;20031;-74
2021/05/30 06:00:27;;;;;;;4.50;4.05;;;;;;;10.61;98.02;98411.25;4993049;28;20526;-74
2021/05/30 06:02:52;;;;;;;11.57;6.13;;;;;;;10.88;97.48;98422.53;4992115;28;20066;-77
2021/05/30 06:05:21;;;;;;;4.65;4.18;;;;;;;11.08;93.56;98402.41;4993475;28;20050;-75
2021/05/30 06:07:49;;;;;;;6.00;4.75;;;;;;;11.06;94.28;98415.53;4992393;28;20033;-74
2021/05/30 06:10:16;;;;;;;8.13;5.22;;;;;;;11.32;92.49;98419.69;4992925;28;20756;-74
2021/05/30 06:12:43;;;;;;;8.85;5.40;;;;;;;11.41;91.84;98420.69;4974194;28;20117;-76
2021/05/30 06:15:09;;;;;;;8.48;5.70;;;;;;;11.10;91.69;98422.91;4991643;28;20146;-75
2021/05/30 06:17:35;;;;;;;6.47;5.40;;;;;;;10.95;92.66;98420.28;4974694;28;20037;-74
2021/05/30 06:20:00;;;;;;;7.28;5.82;;;;;;;11.15;91.13;98425.56;4990327;28;20392;-74
2021/05/30 06:22:27;;;;;;;10.38;5.68;;;;;;;11.44;91.25;98424.75;4990215;28;20444;-75
2021/05/30 06:24:55;;;;;;;7.30;5.72;;;;;;;11.50;90.63;98429.91;4991591;28;20483;-75
2021/05/30 06:27:21;;;;;;;8.00;5.32;;;;;;;11.36;91.00;98434.44;4990469;28;20038;-77
2021/05/30 06:29:47;;;;;;;6.60;5.05;;;;;;;11.00;92.10;98439.41;4991565;28;20495;-75
2021/05/30 06:32:12;;;;;;;6.72;5.55;;;;;;;10.68;93.96;98422.69;4991361;28;20529;-74
2021/05/30 06:34:38;;;;;;;9.27;5.93;;;;;;;10.76;94.33;98433.03;4991575;28;20085;-75
2021/05/30 06:37:04;;;;;;;6.05;5.13;;;;;;;10.75;94.40;98426.72;4991391;28;20150;-75
2021/05/30 06:39:29;;;;;;;7.90;6.32;;;;;;;10.62;96.09;98427.38;5006251;28;20408;-75
2021/05/30 06:41:55;;;;;;;6.97;5.70;;;;;;;10.79;95.94;98417.94;5011940;28;20029;-76
2021/05/30 06:44:20;;;;;;;7.18;5.95;;;;;;;10.73;94.64;98426.22;5011452;28;20018;-75
2021/05/30 06:46:46;;;;;;;6.85;6.07;;;;;;;10.98;93.76;98427.94;4998002;28;20038;-77
2021/05/30 06:49:12;;;;;;;6.97;5.53;;;;;;;11.17;92.54;98433.53;4999274;28;20026;-75
2021/05/30 06:51:37;;;;;;;9.23;5.28;;;;;;;10.98;92.50;98429.84;5002967;28;20030;-74
2021/05/30 06:54:05;;;;;;;7.68;6.20;;;;;;;11.10;93.69;98424.81;4998233;28;20044;-74
2021/05/30 06:56:32;;;;;;;8.43;6.38;;;;;;;11.10;91.54;98416.59;4982945;28;20026;-75
2021/05/30 06:58:59;;;;;;;7.63;5.82;;;;;;;11.09;90.89;98423.16;4999288;28;20053;-74
2021/05/30 07:01:24;;;;;;;7.43;6.57;;;;;;;11.20;91.33;98422.81;4980930;28;20497;-75
2021/05/30 07:03:51;;;;;;;8.82;6.53;;;;;;;11.29;91.62;98425.75;4999339;28;20023;-75
2021/05/30 07:06:18;;;;;;;8.85;6.38;;;;;;;11.34;91.74;98433.91;4998267;28;20033;-76
2021/05/30 07:08:43;;;;;;;11.15;5.35;;;;;;;11.63;90.07;98421.00;4980748;28;20022;-74
2021/05/30 07:11:09;;;;;;;6.90;6.03;;;;;;;11.79;89.54;98425.25;4982778;28;20387;-77
2021/05/30 07:13:35;;;;;;;6.68;5.30;;;;;;;11.72;89.82;98423.94;4998925;28;20022;-74
2021/05/30 07:16:01;;;;;;;7.07;5.50;;;;;;;11.82;88.43;98413.69;4981548;28;20037;-75
2021/05/30 07:18:27;;;;;;;27.52;17.67;;;;;;;11.98;87.61;98408.03;5000716;28;20022;-74
2021/05/30 07:20:53;;;;;;;7.80;6.03;;;;;;;12.41;86.27;98417.88;4999533;28;20092;-75
2021/05/30 07:23:22;;;;;;;6.93;6.05;;;;;;;12.14;86.63;98423.19;4997157;28;20034;-75
2021/05/30 07:25:51;;;;;;;7.63;5.97;;;;;;;12.27;86.72;98412.31;4998591;28;20038;-79
2021/05/30 07:28:16;;;;;;;7.90;5.68;;;;;;;12.03;87.46;98418.94;4985970;28;20117;-75
2021/05/30 07:30:42;;;;;;;7.07;6.20;;;;;;;12.07;85.94;98411.75;4996883;28;20223;-75
2021/05/30 07:33:08;;;;;;;6.82;5.22;;;;;;;12.33;84.82;98421.28;4994531;28;20026;-76
2021/05/30 07:35:35;;;;;;;6.93;5.95;;;;;;;12.85;84.83;98412.81;4993851;28;20579;-77
2021/05/30 07:38:01;;;;;;;13.43;6.25;;;;;;;13.28;81.74;98420.94;5000041;28;20025;-79
2021/05/30 07:40:27;;;;;;;9.68;5.38;;;;;;;13.30;80.58;98415.97;4998056;28;20031;-76
2021/05/30 07:42:55;;;;;;;6.88;5.35;;;;;;;13.85;79.04;98420.41;4981012;28;20042;-75
2021/05/30 07:45:22;;;;;;;6.82;5.22;;;;;;;14.24;76.31;98419.91;5001990;28;20129;-78
2021/05/30 07:47:49;;;;;;;5.13;4.32;;;;;;;14.25;76.59;98412.47;4999628;28;20026;-79
2021/05/30 07:50:16;;;;;;;5.90;5.28;;;;;;;13.95;78.08;98411.97;4998547;28;20104;-77
2021/05/30 07:52:44;;;;;;;9.25;5.57;;;;;;;13.57;79.18;98410.50;5001071;28;20475;-75
2021/05/30 07:55:10;;;;;;;7.28;5.78;;;;;;;13.74;80.55;98419.00;4983754;28;20069;-76
2021/05/30 07:57:36;;;;;;;7.18;5.45;;;;;;;13.54;79.65;98410.28;5003804;28;20034;-74
2021/05/30 08:00:04;;;;;;;7.78;5.78;;;;;;;13.86;77.15;98410.22;4988180;28;20113;-82
2021/05/30 08:02:30;;;;;;;7.25;6.03;;;;;;;13.98;77.78;98410.53;5001271;28;20029;-80
2021/05/30 08:04:56;;;;;;;6.05;5.15;;;;;;;13.72;79.27;98403.91;4985427;28;20027;-81
2021/05/30 08:07:22;;;;;;;5.93;5.32;;;;;;;13.78;79.17;98400.75;4984659;28;20100;-80
2021/05/30 08:09:48;;;;;;;6.65;5.07;;;;;;;14.02;77.24;98391.47;5003516;28;20032;-75
2021/05/30 08:12:13;;;;;;;9.50;5.65;;;;;;;14.63;75.99;98402.81;4998387;28;20034;-75
2021/05/30 08:14:39;;;;;;;6.35;5.05;;;;;;;15.09;72.95;98398.97;4998531;28;20109;-77
2021/05/30 08:17:05;;;;;;;6.75;5.32;;;;;;;14.85;73.12;98399.25;4981752;28;20529;-75
2021/05/30 08:19:35;;;;;;;6.10;5.22;;;;;;;15.61;71.46;98391.84;4977892;28;20029;-77
2021/05/30 08:22:00;;;;;;;9.15;5.18;;;;;;;16.31;69.05;98402.81;4995619;28;20022;-74
2021/05/30 08:24:26;;;;;;;5.28;4.63;;;;;;;18.77;60.50;98400.91;4977685;28;20458;-77
2021/05/30 08:26:53;;;;;;;9.07;5.20;;;;;;;18.03;62.50;98390.44;5011701;28;20030;-84
2021/05/30 08:29:21;;;;;;;4.40;3.90;;;;;;;18.45;58.50;98387.78;4993203;28;20704;-80
2021/05/30 08:31:49;;;;;;;5.07;3.85;;;;;;;17.67;62.98;98377.06;4994736;28;20034;-81
2021/05/30 08:34:14;;;;;;;3.65;3.30;;;;;;;17.45;63.36;98379.22;5005210;28;20605;-77
2021/05/30 08:36:40;;;;;;;3.90;3.55;;;;;;;19.71;55.96;98388.13;4980674;28;20033;-80
2021/05/30 08:39:09;;;;;;;7.97;4.38;;;;;;;19.68;54.70;98399.91;5013827;28;20109;-80
2021/05/30 08:41:35;;;;;;;4.43;3.65;;;;;;;21.61;48.42;98398.03;4990453;28;20038;-76
2021/05/30 08:44:00;;;;;;;5.13;4.15;;;;;;;21.88;46.13;98386.84;4992618;28;20724;-78
2021/05/30 08:46:29;;;;;;;4.25;3.85;;;;;;;21.51;47.65;98387.41;4998507;28;20049;-78
2021/05/30 08:48:58;;;;;;;3.97;3.58;;;;;;;20.41;48.63;98366.66;5011783;28;20072;-79
2021/05/30 08:51:24;;;;;;;5.43;3.33;;;;;;;20.83;48.62;98374.31;5012137;28;20026;-78
2021/05/30 08:53:51;;;;;;;3.85;3.45;;;;;;;21.20;47.26;98374.22;4993495;28;20033;-80
2021/05/30 08:56:17;;;;;;;4.00;3.60;;;;;;;20.95;47.72;98367.91;4996624;28;20423;-81
2021/05/30 08:58:45;;;;;;;3.60;3.13;;;;;;;21.87;46.19;98374.06;4996945;28;20146;-78
2021/05/30 09:01:15;;;;;;;4.22;3.80;;;;;;;21.39;49.11;98374.38;5006327;28;20022;-80
2021/05/30 09:03:50;;;;;;;3.92;3.00;;;;;;;21.35;50.86;98374.28;5004055;28;20029;-83
2021/05/30 09:06:17;;;;;;;3.92;3.50;;;;;;;22.08;44.58;98361.88;4995694;28;20029;-79
2021/05/30 09:08:43;;;;;;;5.40;4.10;;;;;;;21.63;45.51;98365.88;4994962;28;20034;-84
2021/05/30 09:11:09;;;;;;;2.75;2.55;;;;;;;21.58;45.75;98360.53;5012490;28;20025;-84
2021/05/30 09:13:53;;;;;;;2.60;1.95;;;;;;;21.69;43.40;98361.66;5007730;28;20052;-81
2021/05/30 09:16:23;;;;;;;6.55;2.05;;;;;;;21.69;45.86;98360.84;5012872;28;20065;-82
2021/05/30 09:18:49;;;;;;;2.92;2.60;;;;;;;21.29;45.00;98359.00;4993279;28;20549;-78
2021/05/30 09:21:14;;;;;;;4.63;2.30;;;;;;;21.02;50.56;98362.53;4990431;28;20034;-83
2021/05/30 09:23:41;;;;;;;2.17;1.80;;;;;;;23.06;42.47;98356.94;4991803;28;20030;-80
2021/05/30 09:26:18;;;;;;;3.33;2.38;;;;;;;21.76;45.35;98363.81;5006681;28;20033;-79
2021/05/30 09:29:02;;;;;;;2.58;2.20;;;;;;;20.98;47.06;98363.63;5010852;28;20056;-77
2021/05/30 09:31:28;;;;;;;2.42;2.22;;;;;;;21.55;46.10;98366.06;5010272;28;20044;-81
2021/05/30 09:33:53;;;;;;;2.60;2.28;;;;;;;21.66;45.21;98355.97;5011016;28;20037;-78
2021/05/30 09:36:21;;;;;;;2.30;2.00;;;;;;;22.31;47.06;98352.47;5011115;28;20502;-78
2021/05/30 09:38:47;;;;;;;3.40;1.73;;;;;;;22.84;43.91;98352.88;5010933;28;20030;-79
2021/05/30 09:41:16;;;;;;;3.40;2.17;;;;;;;23.37;41.85;98346.41;4992828;28;20048;-78
2021/05/30 09:43:53;;;;;;;3.22;2.10;;;;;;;22.33;41.79;98344.53;4993429;28;20041;-79
2021/05/30 09:46:30;;;;;;;3.55;1.98;;;;;;;20.38;47.20;98342.34;5009923;28;20046;-78
2021/05/30 09:48:57;;;;;;;3.08;1.75;;;;;;;19.55;46.81;98345.53;4992765;28;20026;-79
2021/05/30 09:51:29;;;;;;;1.75;1.38;;;;;;;20.21;46.78;98329.47;5003536;28;20037;-77
2021/05/30 09:54:04;;;;;;;2.15;1.50;;;;;;;20.06;47.93;98336.56;4981508;28;20045;-75
2021/05/30 09:56:37;;;;;;;4.15;1.70;;;;;;;20.33;47.49;98337.03;4999202;28;20037;-74
2021/05/30 09:59:08;;;;;;;3.15;1.65;;;;;;;20.06;47.45;98333.78;4999089;28;20491;-74
2021/05/30 10:01:52;;;;;;;2.70;2.10;;;;;;;21.38;44.93;98338.53;4999220;28;20034;-73
2021/05/30 10:04:19;;;;;;;1.63;1.52;;;;;;;22.45;42.10;98329.69;4998333;28;20092;-75
2021/05/30 10:06:45;;;;;;;1.77;1.67;;;;;;;22.22;41.34;98329.56;4999671;28;20045;-79
2021/05/30 10:09:12;;;;;;;3.53;1.75;;;;;;;21.36;43.72;98330.56;4987071;28;20705;-80
2021/05/30 10:11:38;;;;;;;3.35;1.85;;;;;;;20.56;46.44;98327.81;4982966;28;20029;-83
2021/05/30 10:14:05;;;;;;;2.88;1.70;;;;;;;21.21;44.38;98322.94;5001155;28;20026;-80
2021/05/30 10:16:31;;;;;;;3.72;1.75;;;;;;;22.82;40.76;98324.56;4985748;28;20056;-79
2021/05/30 10:19:01;;;;;;;2.80;1.83;;;;;;;23.54;39.74;98331.19;4992204;28;20034;-78
2021/05/30 10:21:28;;;;;;;3.25;1.67;;;;;;;23.20;39.31;98320.94;4999338;28;20531;-78
2021/05/30 10:23:54;;;;;;;2.22;2.03;;;;;;;21.44;44.16;98307.28;4973464;28;20758;-77
2021/05/30 10:26:23;;;;;;;2.10;1.63;;;;;;;22.47;41.73;98312.59;5009984;28;20092;-78
2021/05/30 10:29:07;;;;;;;1.67;1.42;;;;;;;21.32;44.63;98308.19;5009815;28;20030;-78
2021/05/30 10:31:35;;;;;;;1.30;1.20;;;;;;;21.52;44.25;98306.28;4978956;28;20022;-78
2021/05/30 10:34:09;;;;;;;1.85;1.50;;;;;;;20.92;45.24;98303.84;4987942;28;20034;-78
2021/05/30 10:36:43;;;;;;;1.92;1.73;;;;;;;20.44;47.15;98304.81;4986652;28;20153;-78
2021/05/30 10:39:31;;;;;;;2.28;1.73;;;;;;;20.64;45.02;98306.63;4981480;28;20104;-77
2021/05/30 10:42:13;;;;;;;2.35;1.45;;;;;;;20.09;47.87;98296.97;4999012;28;20050;-77
2021/05/30 10:44:54;;;;;;;2.78;1.85;;;;;;;19.77;48.37;98303.44;4980032;28;20054;-76
2021/05/30 10:47:20;;;;;;;4.53;2.05;;;;;;;19.08;48.94;98304.25;4998867;28;20021;-76
2021/05/30 10:50:04;;;;;;;2.85;1.90;;;;;;;18.71;51.58;98299.72;4997561;28;20097;-77
2021/05/30 10:52:37;;;;;;;2.30;1.67;;;;;;;18.25;55.18;98297.94;4996953;28;20026;-75
2021/05/30 10:55:19;;;;;;;2.67;1.98;;;;;;;18.01;56.73;98298.59;4997412;28;20487;-74
2021/05/30 10:57:46;;;;;;;3.35;1.92;;;;;;;17.82;57.74;98298.25;4981412;28;20026;-75
2021/05/30 11:00:18;;;;;;;3.83;1.90;;;;;;;18.36;56.74;98304.69;4997799;28;20102;-83
2021/05/30 11:03:02;;;;;;;1.92;1.45;;;;;;;18.90;53.03;98308.34;4998331;28;20411;-79
2021/05/30 11:05:48;;;;;;;2.05;1.85;;;;;;;18.93;50.95;98301.31;4994622;28;20029;-79
2021/05/30 11:08:28;;;;;;;6.40;1.92;;;;;;;18.93;53.27;98302.13;4999676;28;20029;-84
2021/05/30 11:11:24;;;;;;;6.30;2.47;;;;;;;19.64;52.43;98299.06;4999632;28;20389;-79
2021/05/30 11:14:08;;;;;;;2.40;1.20;;;;;;;18.82;46.21;98306.47;5001468;28;20018;-80
2021/05/30 11:16:34;;;;;;;2.67;2.00;;;;;;;18.92;47.05;98299.69;4989294;28;20033;-83
2021/05/30 11:19:05;;;;;;;1.63;1.40;;;;;;;18.12;49.09;98299.03;4989875;28;20033;-79
2021/05/30 11:21:43;;;;;;;4.85;1.50;;;;;;;18.27;49.30;98295.66;5014143;28;20022;-82
2021/05/30 11:24:20;;;;;;;1.40;1.25;;;;;;;17.95;49.69;98304.69;4986821;28;20018;-81
2021/05/30 11:26:57;;;;;;;1.50;1.30;;;;;;;18.56;48.68;98311.44;4986149;28;20106;-81
2021/05/30 11:29:24;;;;;;;2.05;1.73;;;;;;;18.55;48.94;98299.53;4985468;28;20029;-81